createdAt,value
2023-02-11T00:00:23.250Z,7.12
2023-02-11T00:01:23.265Z,7.15
2023-02-11T00:02:23.269Z,7.12
2023-02-11T00:03:23.293Z,7.13
2023-02-11T00:04:23.217Z,7.12
2023-02-11T00:05:23.168Z,7.08
2023-02-11T00:06:23.153Z,7.12
2023-02-11T00:07:23.144Z,7.12
2023-02-11T00:08:23.151Z,7.12
2023-02-11T00:09:23.120Z,7.12
2023-02-11T00:10:23.105Z,7.08
2023-02-11T00:11:23.090Z,7.09
2023-02-11T00:12:23.071Z,7.07
2023-02-11T00:13:23.058Z,7.13
2023-02-11T00:14:23.058Z,7.09
2023-02-11T00:15:23.046Z,7.13
2023-02-11T00:16:23.048Z,7.09
2023-02-11T00:17:23.002Z,7.12
2023-02-11T00:18:23.063Z,7.09
2023-02-11T00:19:22.990Z,7.08
2023-02-11T00:20:22.972Z,7.07
2023-02-11T00:21:22.963Z,7.08
2023-02-11T00:22:22.943Z,7.09
2023-02-11T00:23:22.930Z,7.09
2023-02-11T00:24:22.938Z,7.12
2023-02-11T00:25:22.912Z,7.09
2023-02-11T00:26:22.920Z,7.08
2023-02-11T00:27:22.874Z,7.09
2023-02-11T00:28:22.975Z,7.09
2023-02-11T00:29:22.853Z,7.05
2023-02-11T00:30:22.849Z,7.07
2023-02-11T00:31:22.998Z,7.07
2023-02-11T00:32:22.805Z,7.05
2023-02-11T00:33:22.803Z,7.05
2023-02-11T00:34:22.797Z,7.05
2023-02-11T00:35:22.777Z,7.07
2023-02-11T00:36:22.757Z,7.07
2023-02-11T00:37:22.747Z,7.07
2023-02-11T00:38:22.726Z,7.08
2023-02-11T00:39:22.728Z,7.08
2023-02-11T00:40:22.698Z,7.08
2023-02-11T00:41:22.681Z,7.08
2023-02-11T00:42:22.676Z,7.09
2023-02-11T00:43:22.656Z,7.09
2023-02-11T00:44:22.674Z,7.09
2023-02-11T00:45:22.648Z,7.07
2023-02-11T00:46:22.675Z,7.12
2023-02-11T00:47:22.596Z,7.09
2023-02-11T00:48:22.586Z,7.12
2023-02-11T00:49:22.596Z,7.09
2023-02-11T00:50:22.590Z,7.08
2023-02-11T00:51:22.562Z,7.09
2023-02-11T00:52:22.544Z,7.12
2023-02-11T00:53:22.524Z,7.12
2023-02-11T00:54:22.517Z,7.07
2023-02-11T00:55:22.521Z,7.08
2023-02-11T00:56:22.476Z,7.09
2023-02-11T00:57:22.491Z,7.12
2023-02-11T00:58:22.509Z,7.09
2023-02-11T00:59:22.457Z,7.05
2023-02-11T01:00:22.462Z,7.05
2023-02-11T01:01:22.474Z,7.05
2023-02-11T01:02:22.434Z,7.07
2023-02-11T01:03:22.457Z,7.07
2023-02-11T01:04:22.463Z,7.07
2023-02-11T01:05:22.397Z,7.07
2023-02-11T01:06:22.365Z,7.08
2023-02-11T01:07:22.338Z,7.08
2023-02-11T01:08:22.322Z,7.05
2023-02-11T01:09:22.321Z,7.07
2023-02-11T01:10:22.311Z,7.07
2023-02-11T01:11:22.304Z,7.05
2023-02-11T01:12:22.288Z,7.07
2023-02-11T01:13:22.248Z,7.09
2023-02-11T01:14:22.266Z,7.07
2023-02-11T01:15:22.242Z,7.05
2023-02-11T01:16:22.334Z,7.08
2023-02-11T01:17:22.237Z,7.04
2023-02-11T01:18:22.222Z,7.07
2023-02-11T01:19:22.194Z,7.07
2023-02-11T01:20:22.168Z,7.07
2023-02-11T01:21:22.166Z,7.05
2023-02-11T01:22:22.177Z,7.04
2023-02-11T01:23:22.152Z,7.07
2023-02-11T01:24:22.128Z,7.05
2023-02-11T01:25:22.134Z,7.07
2023-02-11T01:26:22.098Z,7.07
2023-02-11T01:27:22.077Z,7.08
2023-02-11T01:28:22.101Z,7.07
2023-02-11T01:29:22.069Z,7.07
2023-02-11T01:30:22.040Z,7.07
2023-02-11T01:31:22.139Z,7.07
2023-02-11T01:32:22.079Z,7.07
2023-02-11T01:33:21.986Z,7.05
2023-02-11T01:34:22.020Z,7.07
2023-02-11T01:35:21.974Z,7.08
2023-02-11T01:36:21.966Z,7.08
2023-02-11T01:37:21.946Z,7.08
2023-02-11T01:38:21.929Z,7.08
2023-02-11T01:39:22.680Z,7.12
2023-02-11T01:40:22.892Z,7.08
2023-02-11T01:41:21.880Z,7.08
2023-02-11T01:42:21.882Z,7.08
2023-02-11T01:43:21.857Z,7.08
2023-02-11T01:44:21.872Z,7.08
2023-02-11T01:45:21.834Z,7.09
2023-02-11T01:46:21.880Z,7.07
2023-02-11T01:47:21.801Z,7.05
2023-02-11T01:48:21.793Z,7.05
2023-02-11T01:49:21.844Z,7.02
2023-02-11T01:50:21.797Z,7.04
2023-02-11T01:51:21.748Z,7.04
2023-02-11T01:52:21.740Z,7.04
2023-02-11T01:53:21.726Z,7.04
2023-02-11T01:54:21.727Z,7.04
2023-02-11T01:55:21.711Z,7.02
2023-02-11T01:56:21.708Z,7.04
2023-02-11T01:57:21.679Z,7.07
2023-02-11T01:58:21.687Z,7.04
2023-02-11T01:59:21.652Z,7.07
2023-02-11T02:00:21.629Z,7.07
2023-02-11T02:01:21.625Z,7.08
2023-02-11T02:02:21.599Z,7.07
2023-02-11T02:03:21.595Z,7.05
2023-02-11T02:04:21.580Z,7.05
2023-02-11T02:05:21.594Z,7.04
2023-02-11T02:06:21.555Z,7.04
2023-02-11T02:07:21.531Z,7.05
2023-02-11T02:08:21.522Z,7.04
2023-02-11T02:09:21.499Z,7.05
2023-02-11T02:10:21.510Z,7.05
2023-02-11T02:11:21.492Z,7.04
2023-02-11T02:12:21.485Z,7.02
2023-02-11T02:13:21.455Z,7.04
2023-02-11T02:14:21.462Z,7.05
2023-02-11T02:15:21.449Z,7.04
2023-02-11T02:16:21.458Z,7.07
2023-02-11T02:17:21.411Z,7.05
2023-02-11T02:18:21.393Z,7.05
2023-02-11T02:19:21.397Z,7.05
2023-02-11T02:20:21.369Z,7.05
2023-02-11T02:21:21.335Z,7.07
2023-02-11T02:22:21.335Z,7.04
2023-02-11T02:23:21.309Z,7.05
2023-02-11T02:24:21.296Z,7.05
2023-02-11T02:25:21.283Z,7.05
2023-02-11T02:26:21.290Z,7.04
2023-02-11T02:27:21.258Z,7.04
2023-02-11T02:28:21.282Z,7.05
2023-02-11T02:29:21.239Z,7.04
2023-02-11T02:30:21.312Z,7.02
2023-02-11T02:31:21.259Z,7.05
2023-02-11T02:32:21.192Z,7.02
2023-02-11T02:33:22.998Z,7.04
2023-02-11T02:34:21.172Z,7.05
2023-02-11T02:35:21.165Z,7.02
2023-02-11T02:36:21.150Z,7.04
2023-02-11T02:37:21.145Z,7.05
2023-02-11T02:38:21.125Z,6.99
2023-02-11T02:39:21.108Z,7.01
2023-02-11T02:40:21.108Z,7.02
2023-02-11T02:41:21.093Z,7.01
2023-02-11T02:42:21.077Z,7.01
2023-02-11T02:43:21.061Z,6.98
2023-02-11T02:44:21.026Z,7.01
2023-02-11T02:45:21.067Z,6.98
2023-02-11T02:46:21.112Z,6.99
2023-02-11T02:47:21.051Z,7.01
2023-02-11T02:48:20.982Z,6.99
2023-02-11T02:49:20.977Z,6.98
2023-02-11T02:50:21.002Z,6.99
2023-02-11T02:51:20.943Z,7.01
2023-02-11T02:52:20.939Z,6.99
2023-02-11T02:53:20.910Z,7.01
2023-02-11T02:54:20.905Z,7.02
2023-02-11T02:55:20.906Z,7.01
2023-02-11T02:56:20.882Z,7.02
2023-02-11T02:57:20.859Z,6.99
2023-02-11T02:58:20.843Z,6.97
2023-02-11T02:59:20.848Z,6.99
2023-02-11T03:00:20.865Z,6.99
2023-02-11T03:01:20.830Z,6.99
2023-02-11T03:02:20.831Z,6.98
2023-02-11T03:03:20.851Z,6.99
2023-02-11T03:04:20.778Z,6.99
2023-02-11T03:05:20.763Z,6.98
2023-02-11T03:06:20.769Z,6.97
2023-02-11T03:07:20.723Z,6.98
2023-02-11T03:08:20.717Z,6.97
2023-02-11T03:09:20.710Z,6.99
2023-02-11T03:10:20.722Z,6.95
2023-02-11T03:11:20.700Z,6.99
2023-02-11T03:12:20.650Z,6.97
2023-02-11T03:13:20.645Z,6.98
2023-02-11T03:14:20.638Z,6.97
2023-02-11T03:15:20.637Z,6.97
2023-02-11T03:16:20.632Z,6.95
2023-02-11T03:17:20.585Z,6.97
2023-02-11T03:18:20.600Z,6.95
2023-02-11T03:19:20.582Z,6.94
2023-02-11T03:20:20.585Z,6.97
2023-02-11T03:21:20.600Z,6.95
2023-02-11T03:22:20.535Z,6.95
2023-02-11T03:23:20.509Z,6.91
2023-02-11T03:24:41.503Z,6.94
2023-02-11T03:25:20.518Z,6.94
2023-02-11T03:26:20.479Z,6.89
2023-02-11T03:27:21.543Z,6.89
2023-02-11T03:28:20.533Z,6.89
2023-02-11T03:37:10.677Z,6.87
2023-02-11T03:37:32.196Z,6.86
2023-02-11T03:38:55.397Z,6.87
2023-02-11T03:39:32.195Z,6.86
2023-02-11T03:40:35.660Z,6.87
2023-02-11T03:41:32.152Z,6.86
2023-02-11T03:42:54.185Z,6.87
2023-02-11T03:43:32.125Z,6.87
2023-02-11T03:44:32.118Z,6.86
2023-02-11T03:45:32.170Z,6.86
2023-02-11T03:46:32.085Z,6.87
2023-02-11T03:47:32.070Z,6.87
2023-02-11T03:48:32.064Z,6.86
2023-02-11T03:49:32.060Z,6.87
2023-02-11T03:50:32.068Z,6.86
2023-02-11T03:51:32.044Z,6.87
2023-02-11T03:52:32.008Z,6.87
2023-02-11T03:53:31.995Z,6.87
2023-02-11T03:54:32.008Z,6.84
2023-02-11T03:55:31.967Z,6.86
2023-02-11T03:56:31.956Z,6.87
2023-02-11T03:57:31.935Z,6.86
2023-02-11T03:58:31.934Z,6.84
2023-02-11T03:59:31.911Z,6.84
2023-02-11T04:00:31.987Z,6.86
2023-02-11T04:01:31.921Z,6.86
2023-02-11T04:02:31.890Z,6.84
2023-02-11T04:03:31.955Z,6.84
2023-02-11T04:04:31.854Z,6.83
2023-02-11T04:05:31.850Z,6.81
2023-02-11T04:06:31.830Z,6.83
2023-02-11T04:07:31.825Z,6.83
2023-02-11T04:08:31.821Z,6.84
2023-02-11T04:09:31.787Z,6.84
2023-02-11T04:10:31.797Z,6.83
2023-02-11T04:11:31.776Z,6.80
2023-02-11T04:12:31.755Z,6.81
2023-02-11T04:13:31.723Z,6.81
2023-02-11T04:14:31.733Z,6.83
2023-02-11T04:15:31.721Z,6.81
2023-02-11T04:16:31.781Z,6.80
2023-02-11T04:17:31.677Z,6.81
2023-02-11T04:18:31.664Z,6.83
2023-02-11T04:19:31.681Z,6.81
2023-02-11T04:20:31.674Z,6.80
2023-02-11T04:21:31.643Z,6.80
2023-02-11T04:22:31.634Z,6.81
2023-02-11T04:23:31.595Z,6.81
2023-02-11T04:24:31.629Z,6.81
2023-02-11T04:25:31.593Z,6.80
2023-02-11T04:26:31.580Z,6.79
2023-02-11T04:27:31.547Z,6.80
2023-02-11T04:28:31.634Z,6.84
2023-02-11T04:29:31.541Z,6.80
2023-02-11T04:30:31.551Z,6.80
2023-02-11T04:31:31.528Z,6.81
2023-02-11T04:32:31.486Z,6.80
2023-02-11T04:33:31.503Z,6.81
2023-02-11T04:34:31.454Z,6.80
2023-02-11T04:35:31.445Z,6.80
2023-02-11T04:36:31.687Z,6.77
2023-02-11T04:37:31.446Z,6.80
2023-02-11T04:38:31.402Z,6.79
2023-02-11T04:39:31.395Z,6.80
2023-02-11T04:40:31.396Z,6.77
2023-02-11T04:50:21.738Z,6.72
2023-02-11T04:51:21.503Z,6.73
2023-02-11T04:52:21.490Z,6.73
2023-02-11T04:53:21.480Z,6.73
2023-02-11T04:54:21.468Z,6.72
2023-02-11T04:55:21.460Z,6.73
2023-02-11T04:56:21.462Z,6.73
2023-02-11T04:57:21.441Z,6.76
2023-02-11T04:58:21.423Z,6.73
2023-02-11T04:59:21.427Z,6.73
2023-02-11T05:00:21.384Z,6.73
2023-02-11T05:01:21.427Z,6.72
2023-02-11T05:50:54.279Z,6.76
2023-02-11T05:51:55.267Z,6.73
2023-02-11T05:52:55.253Z,6.72
2023-02-11T05:53:55.240Z,6.71
2023-02-11T05:54:55.216Z,6.71
2023-02-11T05:55:55.206Z,6.73
2023-02-11T05:56:55.197Z,6.73
2023-02-11T05:57:55.210Z,6.76
2023-02-11T05:58:55.169Z,6.73
2023-02-11T05:59:55.151Z,6.72
2023-02-11T06:00:55.166Z,6.73
2023-02-11T06:01:55.138Z,6.73
2023-02-11T06:02:55.198Z,6.73
2023-02-11T06:03:55.155Z,6.73
2023-02-11T06:04:55.138Z,6.71
2023-02-11T06:05:55.103Z,6.73
2023-02-11T06:06:55.100Z,6.72
2023-02-11T06:13:34.147Z,6.72
2023-02-11T06:14:35.147Z,6.71
2023-02-11T06:15:35.099Z,6.69
2023-02-11T06:16:35.088Z,6.72
2023-02-11T06:17:35.124Z,6.69
2023-02-11T06:18:35.068Z,6.73
2023-02-11T06:19:35.084Z,6.71
2023-02-11T06:20:35.069Z,6.72
2023-02-11T06:21:43.286Z,6.72
2023-02-11T06:22:35.264Z,6.71
2023-02-11T06:23:35.008Z,6.73
2023-02-11T06:24:58.581Z,6.72
2023-02-11T06:25:34.986Z,6.72
2023-02-11T06:26:34.985Z,6.72
2023-02-11T06:27:34.991Z,6.71
2023-02-11T06:28:35.088Z,6.72
2023-02-11T06:29:34.931Z,6.71
2023-02-11T06:30:34.908Z,6.71
2023-02-11T06:31:35.057Z,6.71
2023-02-11T06:32:43.940Z,6.72
2023-02-11T06:33:34.914Z,6.71
2023-02-11T06:34:34.869Z,6.69
2023-02-11T06:35:34.855Z,6.72
2023-02-11T06:36:34.863Z,6.69
2023-02-11T06:37:34.831Z,6.69
2023-02-11T06:38:34.814Z,6.69
2023-02-11T06:39:34.804Z,6.68
2023-02-11T06:42:08.940Z,6.73
2023-02-11T06:43:09.545Z,6.71
2023-02-11T06:44:09.529Z,6.72
2023-02-11T06:45:09.576Z,6.71
2023-02-11T06:46:09.537Z,6.71
2023-02-11T06:47:09.527Z,6.73
2023-02-11T06:48:09.478Z,6.72
2023-02-11T06:49:09.476Z,6.73
2023-02-11T06:50:09.506Z,6.72
2023-02-11T06:51:09.440Z,6.77
2023-02-11T06:52:09.427Z,6.72
2023-02-11T06:53:09.417Z,6.72
2023-02-11T06:54:09.420Z,6.76
2023-02-11T06:55:09.394Z,6.76
2023-02-11T06:56:09.402Z,6.76
2023-02-11T06:57:09.361Z,6.76
2023-02-11T06:58:09.333Z,6.76
2023-02-11T06:59:09.322Z,6.73
2023-02-11T07:00:09.332Z,6.76
2023-02-11T07:01:09.322Z,6.77
2023-02-11T07:02:09.317Z,6.77
2023-02-11T07:03:09.298Z,6.80
2023-02-11T07:04:09.270Z,6.79
2023-02-11T07:05:09.256Z,6.77
2023-02-11T07:06:09.239Z,6.79
2023-02-11T07:07:09.226Z,6.77
2023-02-11T07:08:09.202Z,6.77
2023-02-11T07:09:09.248Z,6.77
2023-02-11T07:10:09.175Z,6.76
2023-02-11T07:11:09.180Z,6.77
2023-02-11T07:12:09.159Z,6.79
2023-02-11T07:13:09.143Z,6.79
2023-02-11T07:14:09.134Z,6.80
2023-02-11T07:15:09.120Z,6.79
2023-02-11T07:16:09.120Z,6.81
2023-02-11T07:17:09.107Z,6.81
2023-02-11T07:18:09.099Z,6.79
2023-02-11T07:19:09.070Z,6.80
2023-02-11T07:20:09.028Z,6.81
2023-02-11T07:21:09.035Z,6.81
2023-02-11T07:22:09.025Z,6.80
2023-02-11T07:23:09.010Z,6.81
2023-02-11T07:24:11.057Z,6.80
2023-02-11T07:25:09.018Z,6.83
2023-02-11T07:26:08.963Z,6.79
2023-02-11T07:27:08.957Z,6.81
2023-02-11T07:28:09.003Z,6.84
2023-02-11T07:29:08.974Z,6.84
2023-02-11T07:30:08.922Z,6.86
2023-02-11T07:31:09.019Z,6.83
2023-02-11T07:32:08.936Z,6.83
2023-02-11T07:33:08.876Z,6.81
2023-02-11T07:34:08.866Z,6.81
2023-02-11T07:35:08.839Z,6.83
2023-02-11T07:36:08.831Z,6.81
2023-02-11T07:37:08.815Z,6.81
2023-02-11T07:38:08.803Z,6.83
2023-02-11T07:39:08.792Z,6.86
2023-02-11T07:40:08.842Z,6.83
2023-02-11T07:41:08.762Z,6.83
2023-02-11T07:42:08.746Z,6.83
2023-02-11T07:43:08.736Z,6.80
2023-02-11T07:44:08.731Z,6.86
2023-02-11T07:45:08.751Z,6.84
2023-02-11T07:46:08.838Z,6.84
2023-02-11T07:47:08.817Z,6.84
2023-02-11T07:48:49.022Z,6.84
2023-02-11T07:49:08.673Z,6.84
2023-02-11T07:50:08.634Z,6.84
2023-02-11T07:51:08.631Z,6.84
2023-02-11T07:52:08.619Z,6.84
2023-02-11T07:53:08.621Z,6.83
2023-02-11T07:54:08.641Z,6.87
2023-02-11T07:55:09.693Z,6.84
2023-02-11T07:56:08.682Z,6.86
2023-02-11T07:57:08.560Z,6.87
2023-02-11T07:58:08.535Z,6.87
2023-02-11T07:59:08.522Z,6.86
2023-02-11T08:00:08.500Z,6.89
2023-02-11T08:01:08.567Z,6.89
2023-02-11T08:02:08.574Z,6.91
2023-02-11T08:03:08.499Z,6.91
2023-02-11T08:04:08.462Z,6.91
2023-02-11T08:05:08.492Z,6.90
2023-02-11T08:06:08.463Z,6.95
2023-02-11T08:07:08.413Z,6.97
2023-02-11T08:08:08.494Z,6.95
2023-02-11T08:09:08.396Z,6.95
2023-02-11T08:10:08.402Z,6.98
2023-02-11T08:11:08.401Z,6.98
2023-02-11T08:12:08.374Z,6.98
2023-02-11T08:13:08.361Z,7.02
2023-02-11T08:14:08.332Z,6.99
2023-02-11T08:15:08.332Z,6.99
2023-02-11T08:16:08.489Z,6.99
2023-02-11T08:17:08.307Z,6.99
2023-02-11T08:18:08.266Z,7.02
2023-02-11T08:19:08.300Z,7.01
2023-02-11T08:20:08.248Z,7.02
2023-02-11T08:21:08.293Z,7.02
2023-02-11T08:22:08.220Z,7.01
2023-02-11T08:23:08.235Z,7.04
2023-02-11T08:24:08.201Z,7.02
2023-02-11T08:25:08.165Z,7.02
2023-02-11T08:26:08.173Z,7.07
2023-02-11T08:27:08.145Z,7.08
2023-02-11T08:28:08.195Z,7.07
2023-02-11T08:29:08.143Z,7.08
2023-02-11T08:30:08.083Z,7.09
2023-02-11T08:31:08.115Z,7.12
2023-02-11T08:32:08.142Z,7.12
2023-02-11T08:33:08.116Z,7.09
2023-02-11T08:34:08.060Z,7.13
2023-02-11T08:35:08.096Z,7.12
2023-02-11T08:36:08.001Z,7.13
2023-02-11T08:37:08.001Z,7.15
2023-02-11T08:38:08.039Z,7.13
2023-02-11T08:39:18.712Z,7.16
2023-02-11T08:40:08.081Z,7.16
2023-02-11T08:41:07.977Z,7.16
2023-02-11T08:42:07.936Z,7.19
2023-02-11T08:43:08.223Z,7.17
2023-02-11T08:44:07.955Z,7.19
2023-02-11T09:13:38.071Z,7.47
2023-02-11T09:48:42.748Z,7.74
2023-02-11T09:49:43.734Z,7.72
2023-02-11T09:50:43.757Z,7.69
2023-02-11T09:51:43.729Z,7.72
2023-02-11T09:52:43.687Z,7.72
2023-02-11T09:53:43.675Z,7.75
2023-02-11T09:54:43.716Z,7.75
2023-02-11T09:55:43.658Z,7.77
2023-02-11T09:56:43.717Z,7.79
2023-02-11T09:57:43.622Z,7.79
2023-02-11T09:58:43.679Z,7.78
2023-02-11T09:59:43.639Z,7.79
2023-02-11T10:00:43.670Z,7.79
2023-02-11T10:01:43.627Z,7.81
2023-02-11T10:02:43.554Z,7.82
2023-02-11T10:03:43.552Z,7.82
2023-02-11T10:04:43.611Z,7.82
2023-02-11T10:05:43.508Z,7.85
2023-02-11T10:06:43.506Z,7.87
2023-02-11T10:07:43.488Z,7.89
2023-02-11T10:08:43.473Z,7.85
2023-02-11T10:09:43.519Z,7.85
2023-02-11T10:10:43.454Z,7.87
2023-02-11T10:11:43.459Z,7.85
2023-02-11T10:12:43.470Z,7.87
2023-02-11T10:13:43.414Z,7.87
2023-02-11T10:14:43.430Z,7.87
2023-02-11T10:15:43.450Z,7.89
2023-02-11T10:16:43.393Z,7.89
2023-02-11T10:17:43.350Z,7.90
2023-02-11T10:18:43.401Z,7.90
2023-02-11T10:19:43.347Z,7.84
2023-02-11T10:20:43.325Z,7.85
2023-02-11T10:21:43.332Z,7.85
2023-02-11T10:22:43.292Z,7.84
2023-02-11T10:23:43.278Z,7.87
2023-02-11T10:24:43.326Z,7.87
2023-02-11T10:25:45.281Z,7.90
2023-02-11T10:26:43.266Z,7.90
2023-02-11T10:27:43.232Z,7.87
2023-02-11T10:28:43.396Z,7.87
2023-02-11T10:29:43.226Z,7.89
2023-02-11T10:30:43.315Z,7.90
2023-02-11T10:31:43.200Z,7.90
2023-02-11T10:32:43.211Z,7.93
2023-02-11T10:33:43.168Z,7.94
2023-02-11T10:34:43.140Z,7.94
2023-02-11T10:35:43.152Z,7.97
2023-02-11T10:36:43.101Z,7.93
2023-02-11T10:37:44.627Z,7.96
2023-02-11T10:38:43.072Z,7.96
2023-02-11T10:39:43.108Z,7.94
2023-02-11T10:40:43.070Z,7.97
2023-02-11T10:41:43.050Z,7.97
2023-02-11T10:42:43.022Z,8.00
2023-02-11T10:43:43.046Z,8.02
2023-02-11T10:44:43.067Z,8.03
2023-02-11T10:45:42.993Z,8.07
2023-02-11T10:46:43.044Z,8.07
2023-02-11T10:47:42.955Z,8.08
2023-02-11T10:48:43.168Z,8.08
2023-02-11T10:49:42.936Z,8.07
2023-02-11T10:50:42.917Z,8.10
2023-02-11T10:51:42.931Z,8.10
2023-02-11T10:52:42.904Z,8.12
2023-02-11T10:53:42.872Z,8.14
2023-02-11T10:54:42.870Z,8.14
2023-02-11T10:55:43.256Z,8.17
2023-02-11T10:56:42.838Z,8.15
2023-02-11T10:57:42.827Z,8.18
2023-02-11T10:58:42.971Z,8.20
2023-02-11T10:59:42.848Z,8.22
2023-02-11T11:00:42.825Z,8.25
2023-02-11T11:01:42.855Z,8.22
2023-02-11T11:02:42.758Z,8.26
2023-02-11T11:03:42.763Z,8.26
2023-02-11T11:04:42.810Z,8.25
2023-02-11T11:05:42.812Z,8.26
2023-02-11T11:06:42.714Z,8.28
2023-02-11T11:07:42.725Z,8.28
2023-02-11T11:08:42.733Z,8.25
2023-02-11T11:09:42.655Z,8.25
2023-02-11T11:10:42.648Z,8.22
2023-02-11T11:11:42.674Z,8.26
2023-02-11T11:12:42.640Z,8.22
2023-02-11T11:13:42.627Z,8.25
2023-02-11T11:14:42.689Z,8.25
2023-02-11T11:15:42.614Z,8.22
2023-02-11T11:16:42.580Z,8.28
2023-02-11T11:17:42.618Z,8.28
2023-02-11T11:18:42.591Z,8.28
2023-02-11T11:19:42.584Z,8.28
2023-02-11T11:20:42.545Z,8.26
2023-02-11T11:21:42.532Z,8.29
2023-02-11T11:22:42.477Z,8.26
2023-02-11T11:23:42.476Z,8.28
2023-02-11T11:24:42.515Z,8.29
2023-02-11T11:25:42.470Z,8.30
2023-02-11T11:26:42.443Z,8.33
2023-02-11T11:27:42.435Z,8.33
2023-02-11T11:28:42.424Z,8.33
2023-02-11T11:29:42.401Z,8.33
2023-02-11T11:30:42.417Z,8.36
2023-02-11T11:31:42.453Z,8.37
2023-02-11T11:32:42.359Z,8.40
2023-02-11T11:33:42.338Z,8.39
2023-02-11T11:34:42.440Z,8.42
2023-02-11T11:35:42.320Z,8.45
2023-02-11T11:36:42.336Z,8.47
2023-02-11T11:37:42.338Z,8.47
2023-02-11T11:38:42.273Z,8.47
2023-02-11T11:39:42.327Z,8.50
2023-02-11T11:40:42.335Z,8.51
2023-02-11T11:41:42.283Z,8.51
2023-02-11T11:42:42.229Z,8.55
2023-02-11T11:43:42.219Z,8.57
2023-02-11T11:44:42.186Z,8.57
2023-02-11T11:45:42.304Z,8.57
2023-02-11T11:46:42.281Z,8.60
2023-02-11T11:47:42.188Z,8.60
2023-02-11T11:48:42.132Z,8.60
2023-02-11T11:49:42.154Z,8.58
2023-02-11T11:50:42.108Z,8.58
2023-02-11T11:51:42.107Z,8.58
2023-02-11T11:52:42.089Z,8.58
2023-02-11T11:53:42.067Z,8.57
2023-02-11T11:54:42.042Z,8.58
2023-02-11T11:55:42.048Z,8.57
2023-02-11T11:56:42.121Z,8.55
2023-02-11T11:57:42.053Z,8.57
2023-02-11T11:58:42.105Z,8.55
2023-02-11T11:59:41.979Z,8.58
2023-02-11T12:00:42.015Z,8.58
2023-02-11T12:01:41.978Z,8.57
2023-02-11T12:02:42.037Z,8.60
2023-02-11T12:03:41.964Z,8.65
2023-02-11T12:04:41.926Z,8.63
2023-02-11T12:05:41.929Z,8.65
2023-02-11T12:06:41.886Z,8.65
2023-02-11T12:07:41.869Z,8.68
2023-02-11T12:08:41.850Z,8.68
2023-02-11T12:09:41.901Z,8.72
2023-02-11T12:10:41.866Z,8.69
2023-02-11T12:11:41.825Z,8.72
2023-02-11T12:12:41.802Z,8.75
2023-02-11T12:13:41.801Z,8.76
2023-02-11T12:14:41.813Z,8.78
2023-02-11T12:15:41.757Z,8.78
2023-02-11T12:16:41.788Z,8.76
2023-02-11T12:17:41.796Z,8.79
2023-02-11T12:18:41.719Z,8.76
2023-02-11T12:19:41.709Z,8.78
2023-02-11T12:20:41.693Z,8.76
2023-02-11T12:21:41.711Z,8.73
2023-02-11T12:22:41.717Z,8.73
2023-02-11T12:23:41.691Z,8.72
2023-02-11T12:24:41.660Z,8.71
2023-02-11T12:25:41.641Z,8.75
2023-02-11T12:26:41.683Z,8.72
2023-02-11T12:27:41.654Z,8.73
2023-02-11T12:28:41.789Z,8.75
2023-02-11T12:29:41.596Z,8.79
2023-02-11T12:30:41.583Z,8.79
2023-02-11T12:31:41.619Z,8.79
2023-02-11T12:32:41.553Z,8.83
2023-02-11T12:33:41.527Z,8.87
2023-02-11T12:34:41.555Z,8.87
2023-02-11T12:35:41.493Z,8.88
2023-02-11T12:36:41.497Z,8.90
2023-02-11T12:37:41.488Z,8.91
2023-02-11T12:38:41.512Z,8.94
2023-02-11T12:39:41.485Z,8.94
2023-02-11T12:40:41.433Z,8.99
2023-02-11T12:41:41.441Z,8.93
2023-02-11T12:42:41.406Z,8.96
2023-02-11T12:43:41.393Z,8.97
2023-02-11T12:44:41.427Z,9.01
2023-02-11T12:45:41.431Z,9.02
2023-02-11T12:46:41.368Z,9.02
2023-02-11T12:47:41.345Z,9.04
2023-02-11T12:48:41.371Z,9.04
2023-02-11T12:49:41.307Z,9.04
2023-02-11T12:50:41.320Z,9.02
2023-02-11T12:51:41.296Z,9.06
2023-02-11T12:52:41.274Z,9.04
2023-02-11T12:53:41.267Z,9.05
2023-02-11T12:54:41.238Z,9.05
2023-02-11T12:55:41.242Z,9.04
2023-02-11T12:56:41.227Z,9.04
2023-02-11T12:57:41.212Z,9.06
2023-02-11T12:58:45.441Z,9.12
2023-02-11T12:59:41.194Z,9.15
2023-02-11T13:00:41.260Z,9.15
2023-02-11T13:01:41.239Z,9.13
2023-02-11T13:02:41.230Z,9.16
2023-02-11T13:03:41.124Z,9.18
2023-02-11T13:04:41.147Z,9.18
2023-02-11T13:05:41.118Z,9.15
2023-02-11T13:06:41.146Z,9.13
2023-02-11T13:07:41.125Z,9.15
2023-02-11T13:08:41.061Z,9.16
2023-02-11T13:09:41.065Z,9.16
2023-02-11T13:10:41.057Z,9.18
2023-02-11T13:11:41.040Z,9.20
2023-02-11T13:12:41.134Z,9.20
2023-02-11T13:13:40.993Z,9.20
2023-02-11T13:14:40.987Z,9.23
2023-02-11T13:15:40.969Z,9.24
2023-02-11T13:16:41.032Z,9.27
2023-02-11T13:17:41.026Z,9.28
2023-02-11T13:18:40.919Z,9.30
2023-02-11T13:19:40.913Z,9.32
2023-02-11T13:20:40.916Z,9.34
2023-02-11T13:21:40.922Z,9.34
2023-02-11T13:23:18.347Z,9.35
2023-02-11T13:23:40.865Z,9.35
2023-02-11T13:40:08.935Z,9.34
2023-02-11T13:41:06.562Z,9.35
2023-02-11T13:42:06.543Z,9.35
2023-02-11T13:43:06.529Z,9.38
2023-02-11T13:46:35.527Z,9.42
2023-02-11T13:47:38.630Z,9.42
2023-02-11T13:48:36.492Z,9.42
2023-02-11T13:54:12.298Z,9.43
2023-02-11T13:54:40.132Z,9.48
2023-02-11T13:56:03.236Z,9.52
2023-02-11T13:56:40.105Z,9.50
2023-02-11T13:57:50.684Z,9.49
2023-02-11T13:58:40.114Z,9.49
2023-02-11T13:59:40.540Z,9.46
2023-02-11T14:02:06.400Z,9.50
2023-02-11T14:02:53.235Z,9.49
2023-02-11T14:03:53.202Z,9.49
2023-02-11T14:04:53.195Z,9.48
2023-02-11T14:05:53.140Z,9.50
2023-02-11T14:06:53.132Z,9.53
2023-02-11T14:07:53.122Z,9.56
2023-02-11T14:08:53.131Z,9.60
2023-02-11T14:09:53.147Z,9.60
2023-02-11T14:10:53.412Z,9.60
2023-02-11T14:11:55.154Z,9.63
2023-02-11T14:12:53.147Z,9.61
2023-02-11T14:13:53.056Z,9.60
2023-02-11T14:14:53.034Z,9.58
2023-02-11T14:15:53.053Z,9.58
2023-02-11T14:16:53.049Z,9.58
2023-02-11T14:17:53.042Z,9.57
2023-02-11T14:18:53.018Z,9.58
2023-02-11T14:19:52.976Z,9.63
2023-02-11T14:20:53.213Z,9.61
2023-02-11T14:21:52.929Z,9.64
2023-02-11T14:22:52.918Z,9.68
2023-02-11T14:23:52.910Z,9.67
2023-02-11T14:24:52.899Z,9.73
2023-02-11T14:25:52.883Z,9.75
2023-02-11T14:26:52.954Z,9.81
2023-02-11T14:27:52.855Z,9.83
2023-02-11T14:28:52.863Z,9.88
2023-02-11T14:29:52.817Z,9.88
2023-02-11T14:30:53.212Z,9.91
2023-02-11T14:31:52.950Z,9.96
2023-02-11T14:32:52.829Z,9.94
2023-02-11T14:33:52.783Z,9.96
2023-02-11T14:34:52.800Z,9.99
2023-02-11T14:35:53.169Z,9.97
2023-02-11T14:36:52.818Z,9.97
2023-02-11T14:37:52.752Z,9.96
2023-02-11T14:38:52.738Z,9.96
2023-02-11T14:39:52.728Z,9.96
2023-02-11T14:40:53.020Z,9.94
2023-02-11T14:41:52.693Z,9.96
2023-02-11T14:42:52.709Z,9.96
2023-02-11T14:43:52.648Z,9.99
2023-02-11T14:44:52.637Z,9.96
2023-02-11T14:45:52.655Z,9.96
2023-02-11T14:46:52.589Z,9.94
2023-02-11T14:47:52.582Z,9.96
2023-02-11T14:48:52.663Z,9.96
2023-02-11T14:49:52.551Z,9.94
2023-02-11T14:50:52.879Z,9.91
2023-02-11T14:51:52.565Z,9.91
2023-02-11T14:52:52.542Z,9.89
2023-02-11T14:53:52.716Z,9.89
2023-02-11T14:54:52.519Z,9.85
2023-02-11T14:55:52.531Z,9.85
2023-02-11T14:56:52.496Z,9.83
2023-02-11T14:57:52.451Z,9.83
2023-02-11T14:58:52.445Z,9.85
2023-02-11T14:59:52.499Z,9.82
2023-02-11T15:00:52.752Z,9.78
2023-02-11T15:01:52.499Z,9.76
2023-02-11T15:02:52.401Z,9.76
2023-02-11T15:03:52.355Z,9.73
2023-02-11T15:04:52.370Z,9.73
2023-02-11T15:05:52.345Z,9.70
2023-02-11T15:06:52.322Z,9.70
2023-02-11T15:07:52.465Z,9.68
2023-02-11T15:08:52.303Z,9.68
2023-02-11T15:09:52.328Z,9.71
2023-02-11T15:10:52.514Z,9.70
2023-02-11T15:11:52.249Z,9.68
2023-02-11T15:12:52.242Z,9.71
2023-02-11T15:13:55.070Z,9.73
2023-02-11T15:14:52.584Z,9.71
2023-02-11T15:15:52.301Z,9.76
2023-02-11T15:16:52.234Z,9.78
2023-02-11T15:17:52.179Z,9.79
2023-02-11T15:18:52.239Z,9.78
2023-02-11T15:19:52.142Z,9.78
2023-02-11T15:20:52.598Z,9.76
2023-02-11T15:21:52.117Z,9.73
2023-02-11T15:22:52.105Z,9.76
2023-02-11T15:23:52.094Z,9.75
2023-02-11T15:24:52.118Z,9.75
2023-02-11T15:25:52.106Z,9.71
2023-02-11T15:26:52.076Z,9.73
2023-02-11T15:27:52.042Z,9.68
2023-02-11T15:28:52.269Z,9.70
2023-02-11T15:29:52.082Z,9.66
2023-02-11T15:30:52.394Z,9.68
2023-02-11T15:31:52.072Z,9.63
2023-02-11T15:32:52.010Z,9.64
2023-02-11T15:33:52.037Z,9.64
2023-02-11T15:34:51.954Z,9.64
2023-02-11T15:35:51.929Z,9.63
2023-02-11T15:36:51.930Z,9.61
2023-02-11T15:37:52.007Z,9.63
2023-02-11T15:38:51.908Z,9.57
2023-02-11T15:39:51.908Z,9.60
2023-02-11T15:40:52.155Z,9.58
2023-02-11T15:41:51.858Z,9.57
2023-02-11T15:42:53.566Z,9.57
2023-02-11T15:43:51.824Z,9.58
2023-02-11T15:44:56.589Z,9.57
2023-02-11T15:45:51.825Z,9.56
2023-02-11T15:46:51.864Z,9.56
2023-02-11T15:47:51.992Z,9.58
2023-02-11T15:48:51.777Z,9.57
2023-02-11T15:49:51.760Z,9.57
2023-02-11T15:50:52.124Z,9.57
2023-02-11T15:51:51.728Z,9.52
2023-02-11T15:52:51.699Z,9.53
2023-02-11T15:53:51.684Z,9.53
2023-02-11T15:54:51.697Z,9.53
2023-02-11T15:55:51.672Z,9.50